createdAt,value
2022-08-09T00:00:19.545Z,18.18
2022-08-09T00:06:18.689Z,18.13
2022-08-09T00:11:58.724Z,18.09
2022-08-09T00:18:10.901Z,18.09
2022-08-09T00:23:56.395Z,18.14
2022-08-09T00:29:12.494Z,18.14
2022-08-09T00:34:51.908Z,18.14
2022-08-09T00:40:17.252Z,18.07
2022-08-09T00:45:26.756Z,17.97
2022-08-09T00:50:41.806Z,17.87
2022-08-09T00:56:05.722Z,17.72
2022-08-09T01:01:32.457Z,17.53
2022-08-09T01:07:18.692Z,17.45
2022-08-09T01:13:22.376Z,17.39
2022-08-09T01:18:47.642Z,17.33
2022-08-09T01:24:44.076Z,17.20
2022-08-09T01:30:08.192Z,17.08
2022-08-09T01:35:38.790Z,17.01
2022-08-09T01:41:13.341Z,16.98
2022-08-09T01:46:29.121Z,16.95
2022-08-09T01:51:38.919Z,17.01
2022-08-09T01:56:53.809Z,17.02
2022-08-09T02:02:09.409Z,17.00
2022-08-09T02:08:39.063Z,16.98
2022-08-09T02:12:51.511Z,16.98
2022-08-09T02:18:10.473Z,17.00
2022-08-09T02:23:31.789Z,16.98
2022-08-09T02:28:53.211Z,16.96
2022-08-09T02:34:40.088Z,16.93
2022-08-09T02:40:03.577Z,16.92
2022-08-09T02:45:22.463Z,16.94
2022-08-09T02:50:42.218Z,16.96
2022-08-09T02:55:57.502Z,16.95
2022-08-09T03:01:29.022Z,16.95
2022-08-09T03:06:46.185Z,16.90
2022-08-09T03:12:17.812Z,16.87
2022-08-09T03:17:27.596Z,16.88
2022-08-09T03:22:56.968Z,16.92
2022-08-09T03:28:11.323Z,16.94
2022-08-09T03:33:20.749Z,16.90
2022-08-09T03:38:42.749Z,16.83
2022-08-09T03:44:12.041Z,16.87
2022-08-09T03:49:32.887Z,16.93
2022-08-09T03:54:49.386Z,16.97
2022-08-09T04:00:00.739Z,16.95
2022-08-09T04:05:27.454Z,16.92
2022-08-09T04:11:01.728Z,16.95
2022-08-09T04:16:19.843Z,16.98
2022-08-09T04:21:31.567Z,17.06
2022-08-09T04:26:46.242Z,17.12
2022-08-09T04:31:53.709Z,17.09
2022-08-09T04:37:09.881Z,17.03
2022-08-09T04:42:18.613Z,17.01
2022-08-09T04:47:27.110Z,17.00
2022-08-09T04:52:53.226Z,17.02
2022-08-09T04:58:09.738Z,17.02
2022-08-09T05:03:39.804Z,16.99
2022-08-09T05:08:51.483Z,16.97
2022-08-09T05:14:19.221Z,16.98
2022-08-09T05:19:31.803Z,17.00
2022-08-09T05:24:57.270Z,17.03
2022-08-09T05:30:12.262Z,17.06
2022-08-09T05:35:46.735Z,17.06
2022-08-09T05:41:12.701Z,17.14
2022-08-09T05:46:23.699Z,17.24
2022-08-09T05:51:45.945Z,17.33
2022-08-09T05:57:00.734Z,17.40
2022-08-09T06:02:10.005Z,17.52
2022-08-09T06:07:28.395Z,17.72
2022-08-09T06:13:02.906Z,17.92
2022-08-09T06:18:17.431Z,18.10
2022-08-09T06:23:57.658Z,18.22
2022-08-09T06:29:05.079Z,18.35
2022-08-09T06:34:13.596Z,18.46
2022-08-09T06:39:48.209Z,18.63
2022-08-09T06:45:00.492Z,18.86
2022-08-09T06:50:32.061Z,19.06
2022-08-09T06:55:40.753Z,19.19
2022-08-09T07:00:58.544Z,19.35
2022-08-09T07:06:08.802Z,19.55
2022-08-09T07:11:25.223Z,19.62
2022-08-09T07:16:41.781Z,19.83
2022-08-09T07:21:59.844Z,19.94
2022-08-09T07:27:33.387Z,20.03
2022-08-09T07:32:43.637Z,20.14
2022-08-09T07:37:54.274Z,20.36
2022-08-09T07:43:16.699Z,20.70
2022-08-09T07:48:30.402Z,21.01
2022-08-09T07:54:05.720Z,21.47
2022-08-09T07:59:34.503Z,21.93
2022-08-09T08:04:53.837Z,22.20
2022-08-09T08:10:08.084Z,22.39
2022-08-09T08:15:27.697Z,22.90
2022-08-09T08:20:39.101Z,23.15
2022-08-09T08:25:54.335Z,23.08
2022-08-09T08:31:24.431Z,22.92
2022-08-09T08:36:56.123Z,22.78
2022-08-09T08:42:11.566Z,22.84
2022-08-09T08:47:19.347Z,22.79
2022-08-09T08:58:03.529Z,22.37
2022-08-09T09:03:33.059Z,22.30
2022-08-09T09:08:59.752Z,22.34
2022-08-09T09:14:27.183Z,22.49
2022-08-09T09:19:41.337Z,22.65
2022-08-09T09:25:00.814Z,22.69
2022-08-09T09:30:40.093Z,22.92
2022-08-09T09:36:00.581Z,23.25
2022-08-09T09:41:33.391Z,23.39
2022-08-09T09:47:13.601Z,23.48
2022-08-09T09:52:36.510Z,23.55
2022-08-09T09:58:18.622Z,23.63
2022-08-09T10:03:57.960Z,23.68
2022-08-09T10:09:22.724Z,23.90
2022-08-09T10:14:33.562Z,23.92
2022-08-09T10:19:45.885Z,24.00
2022-08-09T10:25:11.618Z,23.95
2022-08-09T10:32:13.686Z,23.96
2022-08-09T10:36:27.834Z,24.05
2022-08-09T10:41:56.349Z,24.21
2022-08-09T10:48:12.436Z,24.35
2022-08-09T10:53:46.632Z,24.36
2022-08-09T10:59:55.716Z,24.35
2022-08-09T11:05:25.441Z,24.38
2022-08-09T11:11:00.790Z,24.43
2022-08-09T11:16:42.359Z,24.39
2022-08-09T11:22:10.191Z,24.26
2022-08-09T11:28:03.999Z,24.20
2022-08-09T11:33:26.903Z,24.18
2022-08-09T11:38:41.479Z,24.20
2022-08-09T11:43:52.950Z,24.22
2022-08-09T11:49:09.927Z,24.19
2022-08-09T11:54:29.930Z,24.13
2022-08-09T11:59:44.820Z,24.18
2022-08-09T12:05:02.870Z,24.34
2022-08-09T12:10:39.575Z,24.51
2022-08-09T12:16:05.307Z,24.63
2022-08-09T12:21:38.825Z,24.59
2022-08-09T12:29:12.642Z,24.45
2022-08-09T12:32:28.492Z,24.35
2022-08-09T12:37:49.845Z,24.32
2022-08-09T12:42:59.818Z,24.23
2022-08-09T12:48:28.015Z,24.30
2022-08-09T12:53:40.734Z,24.41
2022-08-09T12:59:10.336Z,24.63
2022-08-09T13:04:36.184Z,24.77
2022-08-09T13:09:55.991Z,24.85
2022-08-09T13:15:12.802Z,24.86
2022-08-09T13:21:04.009Z,24.65
2022-08-09T13:26:05.461Z,24.50
2022-08-09T13:32:16.783Z,24.41
2022-08-09T13:36:45.548Z,24.18
2022-08-09T13:42:01.335Z,23.92
2022-08-09T13:47:31.402Z,23.80
2022-08-09T13:52:44.998Z,23.69
2022-08-09T13:57:59.380Z,23.38
2022-08-09T14:04:01.782Z,23.12
2022-08-09T14:08:34.973Z,22.92
2022-08-09T14:14:24.173Z,22.74
2022-08-09T14:19:10.378Z,22.64
2022-08-09T14:24:22.182Z,22.61
2022-08-09T14:30:35.790Z,22.55
2022-08-09T14:35:23.294Z,22.47
2022-08-09T14:41:04.149Z,22.40
2022-08-09T14:46:57.963Z,22.32
2022-08-09T14:51:44.701Z,22.31
2022-08-09T14:56:58.792Z,22.40
2022-08-09T15:02:14.013Z,22.53
2022-08-09T15:07:23.662Z,22.64
2022-08-09T15:12:32.046Z,22.68
2022-08-09T15:17:52.842Z,22.64
2022-08-09T15:24:00.604Z,22.56
2022-08-09T15:28:35.726Z,22.45
2022-08-09T15:34:32.205Z,22.36
2022-08-09T15:39:20.812Z,22.26
2022-08-09T15:44:32.587Z,22.19
2022-08-09T15:49:41.371Z,22.21
2022-08-09T15:55:15.252Z,22.25
2022-08-09T16:00:25.733Z,22.30
2022-08-09T16:05:47.659Z,22.42
2022-08-09T16:11:04.804Z,22.54
2022-08-09T16:16:29.586Z,22.75
2022-08-09T16:21:40.434Z,22.92
2022-08-09T16:26:48.737Z,23.05
2022-08-09T16:32:12.563Z,23.08
2022-08-09T16:37:54.060Z,23.05
2022-08-09T16:43:02.267Z,22.94
2022-08-09T16:48:42.616Z,22.81
2022-08-09T16:53:56.191Z,22.69
2022-08-09T16:59:10.556Z,22.62
2022-08-09T17:04:25.454Z,22.57
2022-08-09T17:09:45.515Z,22.51
2022-08-09T17:14:58.142Z,22.47
2022-08-09T17:20:35.692Z,22.46
2022-08-09T17:25:35.304Z,22.46
2022-08-09T17:30:47.967Z,22.44
2022-08-09T17:35:55.748Z,22.39
2022-08-09T17:41:04.219Z,22.33
2022-08-09T17:46:11.925Z,22.19
2022-08-09T17:51:23.426Z,22.03
2022-08-09T17:56:35.309Z,21.86
2022-08-09T18:02:06.654Z,21.72
2022-08-09T18:07:22.286Z,21.57
2022-08-09T18:13:38.330Z,21.41
2022-08-09T18:18:10.371Z,21.20
2022-08-09T18:24:09.544Z,20.99
2022-08-09T18:30:41.747Z,20.81
2022-08-09T18:34:39.305Z,20.63
2022-08-09T18:39:50.098Z,20.42
2022-08-09T18:45:03.100Z,20.18
2022-08-09T18:50:37.898Z,19.92
2022-08-09T18:56:05.479Z,19.70
2022-08-09T19:01:43.523Z,19.46
2022-08-09T19:07:06.369Z,19.25
2022-08-09T19:12:25.474Z,18.99
2022-08-09T19:17:56.598Z,18.74
2022-08-09T19:24:32.337Z,18.58
2022-08-09T19:29:18.263Z,18.45
2022-08-09T19:34:30.765Z,18.30
2022-08-09T19:40:04.288Z,18.20
2022-08-09T19:45:38.997Z,18.05
2022-08-09T19:51:09.970Z,17.97
2022-08-09T19:56:28.917Z,17.97
2022-08-09T20:02:18.179Z,17.98
2022-08-09T20:07:59.181Z,18.00
2022-08-09T20:13:21.206Z,18.01
2022-08-09T20:19:42.369Z,18.00
2022-08-09T20:24:36.828Z,17.98
2022-08-09T20:30:23.754Z,17.95
2022-08-09T20:35:54.631Z,17.92
2022-08-09T20:41:18.360Z,17.88
2022-08-09T20:47:00.244Z,17.84
2022-08-09T20:52:24.881Z,17.83
2022-08-09T20:58:05.559Z,17.82
2022-08-09T21:05:51.031Z,17.78
2022-08-09T21:09:24.853Z,17.67
2022-08-09T21:14:58.591Z,17.55
2022-08-09T21:20:22.819Z,17.41
2022-08-09T21:25:59.721Z,17.28
2022-08-09T21:31:21.691Z,17.21
2022-08-09T21:36:33.559Z,17.14
2022-08-09T21:42:10.417Z,17.06
2022-08-09T21:47:26.587Z,16.95
2022-08-09T21:52:51.470Z,16.87
2022-08-09T21:58:54.275Z,16.80
2022-08-09T22:04:04.893Z,16.78
2022-08-09T22:09:35.473Z,16.78
2022-08-09T22:14:51.965Z,16.79
2022-08-09T22:20:02.948Z,16.69
2022-08-09T22:26:06.056Z,16.58
2022-08-09T22:31:08.092Z,16.47
2022-08-09T22:36:25.086Z,16.44
2022-08-09T22:41:38.963Z,16.40
2022-08-09T22:48:12.381Z,16.32
2022-08-09T22:52:40.349Z,16.10
2022-08-09T22:58:00.398Z,15.95
2022-08-09T23:03:16.871Z,15.77
2022-08-09T23:08:48.141Z,15.59
2022-08-09T23:14:17.466Z,15.48
2022-08-09T23:20:07.216Z,15.34
2022-08-09T23:25:23.447Z,15.26
2022-08-09T23:30:52.073Z,15.22
2022-08-09T23:36:20.556Z,15.11
2022-08-09T23:41:48.579Z,14.99
2022-08-09T23:47:04.804Z,14.91
2022-08-09T23:52:26.641Z,14.79
2022-08-09T23:57:44.902Z,14.68
